createdAt,value
2022-08-22T00:01:23.854Z,2.60
2022-08-22T00:02:45.527Z,1.05
2022-08-22T00:02:48.856Z,1.33
2022-08-22T00:02:54.354Z,1.60
2022-08-22T00:04:04.151Z,2.05
2022-08-22T00:07:08.390Z,2.70
2022-08-22T00:09:42.767Z,2.38
2022-08-22T00:12:19.242Z,2.65
2022-08-22T00:14:56.458Z,2.90
2022-08-22T00:17:29.114Z,2.92
2022-08-22T00:20:28.095Z,2.80
2022-08-22T00:23:09.264Z,2.30
2022-08-22T00:25:58.306Z,2.78
2022-08-22T00:29:03.159Z,2.60
2022-08-22T00:31:35.379Z,2.53
2022-08-22T00:34:15.523Z,2.67
2022-08-22T00:37:04.010Z,2.70
2022-08-22T00:39:45.045Z,2.85
2022-08-22T00:42:36.582Z,4.30
2022-08-22T00:45:14.557Z,2.80
2022-08-22T00:47:59.549Z,2.38
2022-08-22T00:50:57.417Z,2.70
2022-08-22T00:53:48.635Z,2.88
2022-08-22T00:56:24.034Z,3.42
2022-08-22T00:59:29.771Z,3.33
2022-08-22T01:02:29.466Z,2.55
2022-08-22T01:05:27.658Z,3.13
2022-08-22T01:08:36.247Z,2.92
2022-08-22T01:11:27.209Z,2.50
2022-08-22T01:13:56.956Z,2.40
2022-08-22T01:16:35.906Z,2.67
2022-08-22T01:19:20.687Z,2.75
2022-08-22T01:22:16.359Z,2.33
2022-08-22T01:25:21.902Z,2.65
2022-08-22T01:28:10.553Z,2.13
2022-08-22T01:31:23.482Z,2.83
2022-08-22T01:34:29.923Z,2.97
2022-08-22T01:37:29.638Z,2.90
2022-08-22T01:40:34.717Z,3.25
2022-08-22T01:43:16.777Z,2.83
2022-08-22T01:46:12.298Z,2.83
2022-08-22T01:48:51.504Z,3.25
2022-08-22T01:51:28.860Z,2.67
2022-08-22T01:54:04.579Z,2.97
2022-08-22T01:56:43.371Z,3.00
2022-08-22T01:59:22.004Z,3.00
2022-08-22T02:02:13.235Z,2.90
2022-08-22T02:04:47.212Z,3.53
2022-08-22T02:07:41.475Z,2.65
2022-08-22T02:10:35.936Z,2.92
2022-08-22T02:13:34.509Z,3.33
2022-08-22T02:16:11.438Z,3.65
2022-08-22T02:18:57.413Z,3.70
2022-08-22T02:21:41.416Z,2.80
2022-08-22T02:24:43.370Z,2.72
2022-08-22T02:27:25.610Z,2.67
2022-08-22T02:30:05.521Z,3.00
2022-08-22T02:32:41.098Z,3.03
2022-08-22T02:35:25.205Z,3.60
2022-08-22T02:38:24.234Z,3.22
2022-08-22T02:41:09.671Z,2.60
2022-08-22T02:43:52.259Z,3.45
2022-08-22T02:46:51.957Z,3.05
2022-08-22T02:50:03.721Z,3.42
2022-08-22T02:53:12.470Z,3.05
2022-08-22T02:56:14.916Z,2.88
2022-08-22T02:59:05.026Z,3.28
2022-08-22T03:01:31.708Z,3.25
2022-08-22T03:04:17.963Z,2.58
2022-08-22T03:07:00.765Z,2.95
2022-08-22T03:09:33.632Z,3.10
2022-08-22T03:12:32.136Z,2.90
2022-08-22T03:15:06.366Z,2.78
2022-08-22T03:17:45.567Z,3.20
2022-08-22T03:20:20.171Z,3.05
2022-08-22T03:23:02.383Z,3.10
2022-08-22T03:25:50.750Z,3.08
2022-08-22T03:28:27.423Z,2.90
2022-08-22T03:31:12.075Z,3.20
2022-08-22T03:33:38.853Z,2.95
2022-08-22T03:36:28.295Z,3.13
2022-08-22T03:39:17.131Z,3.13
2022-08-22T03:42:18.142Z,2.90
2022-08-22T03:45:07.189Z,2.67
2022-08-22T03:47:36.749Z,3.03
2022-08-22T03:51:02.635Z,3.20
2022-08-22T03:53:41.283Z,3.13
2022-08-22T03:56:34.198Z,3.00
2022-08-22T03:59:29.708Z,2.63
2022-08-22T04:02:24.806Z,3.25
2022-08-22T04:05:04.138Z,2.55
2022-08-22T04:07:52.782Z,2.90
2022-08-22T04:11:04.104Z,2.85
2022-08-22T04:13:53.705Z,3.47
2022-08-22T04:16:39.158Z,3.53
2022-08-22T04:19:46.924Z,3.15
2022-08-22T04:22:22.737Z,3.13
2022-08-22T04:25:12.898Z,3.65
2022-08-22T04:27:58.417Z,2.80
2022-08-22T04:30:38.181Z,3.20
2022-08-22T04:33:17.605Z,3.47
2022-08-22T04:36:05.197Z,3.20
2022-08-22T04:38:44.367Z,3.03
2022-08-22T04:41:42.787Z,3.28
2022-08-22T04:44:24.090Z,3.47
2022-08-22T04:47:03.490Z,3.03
2022-08-22T04:49:38.755Z,2.97
2022-08-22T04:52:24.409Z,2.65
2022-08-22T04:55:24.424Z,2.77
2022-08-22T04:57:51.145Z,3.05
2022-08-22T05:00:18.446Z,2.60
2022-08-22T05:02:51.196Z,4.80
2022-08-22T05:05:25.661Z,3.05
2022-08-22T05:07:56.532Z,3.08
2022-08-22T05:10:26.653Z,2.97
2022-08-22T05:13:00.435Z,2.88
2022-08-22T05:15:33.475Z,3.58
2022-08-22T05:18:06.486Z,2.72
2022-08-22T05:20:34.759Z,3.00
2022-08-22T05:23:17.881Z,3.55
2022-08-22T05:25:47.197Z,3.20
2022-08-22T05:28:22.947Z,3.13
2022-08-22T05:30:51.264Z,2.58
2022-08-22T05:33:35.204Z,3.40
2022-08-22T05:36:08.186Z,2.85
2022-08-22T05:38:41.238Z,3.20
2022-08-22T05:41:11.742Z,3.50
2022-08-22T05:43:43.200Z,3.03
2022-08-22T05:46:27.134Z,2.85
2022-08-22T05:48:59.917Z,3.40
2022-08-22T05:52:19.454Z,3.00
2022-08-22T05:54:57.378Z,3.17
2022-08-22T05:57:38.097Z,3.28
2022-08-22T06:00:19.033Z,3.13
2022-08-22T06:03:25.612Z,3.67
2022-08-22T06:05:57.783Z,3.45
2022-08-22T06:08:34.920Z,3.20
2022-08-22T06:11:12.202Z,3.40
2022-08-22T06:13:47.395Z,3.30
2022-08-22T06:16:28.843Z,2.88
2022-08-22T06:18:57.583Z,2.67
2022-08-22T06:21:39.259Z,3.00
2022-08-22T06:24:10.398Z,3.42
2022-08-22T06:26:46.091Z,3.15
2022-08-22T06:29:29.297Z,2.88
2022-08-22T06:31:57.696Z,3.38
2022-08-22T06:34:28.762Z,3.25
2022-08-22T06:36:58.618Z,3.45
2022-08-22T06:39:31.079Z,3.42
2022-08-22T06:42:28.195Z,2.90
2022-08-22T06:45:07.682Z,3.53
2022-08-22T06:47:50.247Z,2.90
2022-08-22T06:50:38.977Z,3.13
2022-08-22T06:53:24.643Z,3.97
2022-08-22T06:55:57.835Z,3.30
2022-08-22T06:58:34.123Z,2.60
2022-08-22T07:01:12.192Z,3.63
2022-08-22T07:03:49.403Z,3.03
2022-08-22T07:06:19.169Z,2.80
2022-08-22T07:08:52.324Z,3.25
2022-08-22T07:11:27.504Z,2.60
2022-08-22T07:13:59.961Z,2.90
2022-08-22T07:16:45.294Z,2.40
2022-08-22T07:19:30.530Z,2.83
2022-08-22T07:21:59.123Z,2.80
2022-08-22T07:24:31.331Z,2.90
2022-08-22T07:27:18.399Z,2.70
2022-08-22T07:30:10.067Z,2.45
2022-08-22T07:32:58.830Z,2.13
2022-08-22T07:35:53.768Z,2.30
2022-08-22T07:38:30.701Z,2.15
2022-08-22T07:41:03.852Z,2.10
2022-08-22T07:43:47.974Z,2.17
2022-08-22T07:46:35.500Z,2.35
2022-08-22T07:49:16.482Z,2.30
2022-08-22T07:51:47.341Z,2.20
2022-08-22T07:54:19.425Z,2.17
2022-08-22T07:56:57.591Z,2.63
2022-08-22T07:59:27.204Z,2.50
2022-08-22T08:01:59.691Z,2.33
2022-08-22T08:04:31.237Z,2.05
2022-08-22T08:07:01.013Z,1.88
2022-08-22T08:09:32.883Z,6.22
2022-08-22T08:12:02.735Z,2.05
2022-08-22T08:14:30.775Z,2.00
2022-08-22T08:17:19.062Z,2.38
2022-08-22T08:19:47.265Z,2.40
2022-08-22T08:22:21.266Z,3.25
2022-08-22T08:24:49.801Z,2.95
2022-08-22T08:27:41.177Z,2.10
2022-08-22T08:30:17.145Z,2.35
2022-08-22T08:32:57.560Z,2.85
2022-08-22T08:36:03.495Z,2.70
2022-08-22T08:38:58.694Z,2.53
2022-08-22T08:41:28.248Z,2.00
2022-08-22T08:44:19.213Z,1.90
2022-08-22T08:47:23.455Z,2.25
2022-08-22T08:50:25.103Z,1.92
2022-08-22T08:53:13.728Z,2.17
2022-08-22T08:56:02.234Z,2.22
2022-08-22T08:58:35.088Z,1.98
2022-08-22T09:01:19.518Z,2.40
2022-08-22T09:04:01.198Z,1.98
2022-08-22T09:06:42.529Z,2.42
2022-08-22T09:09:21.703Z,1.88
2022-08-22T09:12:01.559Z,2.13
2022-08-22T09:14:49.227Z,2.53
2022-08-22T09:17:28.818Z,2.55
2022-08-22T09:20:19.362Z,2.03
2022-08-22T09:23:10.100Z,2.20
2022-08-22T09:25:55.996Z,1.85
2022-08-22T09:28:47.622Z,2.35
2022-08-22T09:31:47.725Z,2.10
2022-08-22T09:34:29.543Z,1.77
2022-08-22T09:37:20.122Z,1.77
2022-08-22T09:42:59.228Z,2.03
2022-08-22T09:45:40.447Z,2.42
2022-08-22T09:48:10.009Z,2.10
2022-08-22T09:51:20.051Z,2.20
2022-08-22T09:54:24.538Z,2.13
2022-08-22T09:57:18.546Z,2.20
2022-08-22T09:59:57.961Z,2.10
2022-08-22T10:02:43.644Z,1.98
2022-08-22T10:05:35.237Z,2.20
2022-08-22T10:08:33.392Z,1.93
2022-08-22T10:11:09.737Z,1.83
2022-08-22T10:14:00.651Z,1.90
2022-08-22T10:17:03.163Z,2.22
2022-08-22T10:19:46.433Z,2.20
2022-08-22T10:22:50.133Z,1.98
2022-08-22T10:25:51.586Z,2.45
2022-08-22T10:28:37.808Z,2.38
2022-08-22T10:31:30.046Z,2.28
2022-08-22T10:34:08.927Z,2.28
2022-08-22T10:36:46.604Z,2.00
2022-08-22T10:39:29.313Z,2.17
2022-08-22T10:42:35.723Z,2.50
2022-08-22T10:45:15.458Z,2.22
2022-08-22T10:47:53.502Z,2.17
2022-08-22T10:50:45.504Z,2.10
2022-08-22T10:53:33.124Z,2.13
2022-08-22T10:56:21.425Z,2.33
2022-08-22T10:59:17.333Z,2.55
2022-08-22T11:02:03.158Z,2.13
2022-08-22T11:04:50.450Z,2.00
2022-08-22T11:07:29.069Z,1.92
2022-08-22T11:10:09.253Z,2.47
2022-08-22T11:12:48.770Z,1.87
2022-08-22T11:15:34.577Z,2.28
2022-08-22T11:18:15.945Z,1.70
2022-08-22T11:21:07.132Z,2.25
2022-08-22T11:24:01.761Z,1.83
2022-08-22T11:26:56.893Z,2.35
2022-08-22T11:29:38.678Z,1.98
2022-08-22T11:32:16.963Z,1.98
2022-08-22T11:34:55.509Z,1.58
2022-08-22T11:37:42.993Z,2.00
2022-08-22T11:40:37.731Z,1.73
2022-08-22T11:43:11.976Z,1.70
2022-08-22T11:45:51.447Z,1.85
2022-08-22T11:48:33.184Z,1.60
2022-08-22T11:51:25.022Z,1.90
2022-08-22T11:54:14.784Z,2.10
2022-08-22T11:56:54.798Z,1.60
2022-08-22T11:59:43.182Z,1.60
2022-08-22T12:02:26.548Z,1.80
2022-08-22T12:04:58.691Z,2.22
2022-08-22T12:07:31.635Z,1.90
2022-08-22T12:10:06.909Z,1.73
2022-08-22T12:13:02.918Z,1.77
2022-08-22T12:15:58.061Z,2.15
2022-08-22T12:18:30.533Z,2.03
2022-08-22T12:21:38.578Z,2.30
2022-08-22T12:24:19.269Z,2.08
2022-08-22T12:27:08.010Z,2.30
2022-08-22T12:29:59.762Z,2.58
2022-08-22T12:32:45.859Z,2.25
2022-08-22T12:35:30.264Z,2.67
2022-08-22T12:38:02.774Z,2.00
2022-08-22T12:40:38.560Z,2.47
2022-08-22T12:43:23.616Z,2.50
2022-08-22T12:46:04.779Z,2.20
2022-08-22T12:48:52.334Z,2.08
2022-08-22T12:51:36.274Z,2.20
2022-08-22T12:54:21.671Z,2.25
2022-08-22T12:57:29.161Z,2.00
2022-08-22T13:00:06.907Z,2.28
2022-08-22T13:02:39.385Z,1.65
2022-08-22T13:05:19.924Z,2.13
2022-08-22T13:07:55.877Z,1.67
2022-08-22T13:10:44.781Z,2.67
2022-08-22T13:13:37.052Z,2.20
2022-08-22T13:16:11.992Z,2.00
2022-08-22T13:19:07.837Z,2.00
2022-08-22T13:21:39.581Z,2.38
2022-08-22T13:24:16.844Z,1.88
2022-08-22T13:26:55.720Z,1.98
2022-08-22T13:29:27.483Z,2.00
2022-08-22T13:32:07.227Z,2.17
2022-08-22T13:34:50.611Z,1.92
2022-08-22T13:37:44.211Z,1.88
2022-08-22T13:40:21.397Z,1.98
2022-08-22T13:42:54.072Z,2.25
2022-08-22T13:45:27.768Z,1.83
2022-08-22T13:47:59.457Z,2.20
2022-08-22T13:50:37.038Z,2.13
2022-08-22T13:53:50.047Z,2.50
2022-08-22T13:56:47.355Z,2.13
2022-08-22T13:59:55.421Z,1.98
2022-08-22T14:02:44.364Z,2.05
2022-08-22T14:05:31.364Z,2.15
2022-08-22T14:08:26.913Z,1.67
2022-08-22T14:11:02.026Z,2.13
2022-08-22T14:13:55.554Z,1.83
2022-08-22T14:16:29.301Z,1.98
2022-08-22T14:19:06.289Z,1.70
2022-08-22T14:21:59.585Z,1.52
2022-08-22T14:24:45.619Z,1.85
2022-08-22T14:27:32.948Z,1.60
2022-08-22T14:30:15.735Z,1.70
2022-08-22T14:32:49.898Z,2.10
2022-08-22T14:35:37.907Z,2.35
2022-08-22T14:38:29.851Z,1.75
2022-08-22T14:41:28.634Z,1.92
2022-08-22T14:44:28.111Z,1.80
2022-08-22T14:47:00.575Z,2.00
2022-08-22T14:49:34.282Z,1.95
2022-08-22T14:52:19.770Z,1.48
2022-08-22T14:54:46.833Z,2.03
2022-08-22T14:57:20.015Z,1.90
2022-08-22T14:59:52.244Z,1.92
2022-08-22T15:02:27.665Z,1.80
2022-08-22T15:04:56.132Z,1.80
2022-08-22T15:07:26.221Z,1.80
2022-08-22T15:10:24.096Z,2.15
2022-08-22T15:12:53.965Z,2.33
2022-08-22T15:15:32.672Z,1.45
2022-08-22T15:18:18.085Z,1.60
2022-08-22T15:20:52.307Z,1.88
2022-08-22T15:23:21.888Z,1.52
2022-08-22T15:26:02.213Z,1.85
2022-08-22T15:28:52.314Z,2.20
2022-08-22T15:31:20.214Z,2.45
2022-08-22T15:33:48.485Z,1.98
2022-08-22T15:36:21.163Z,1.55
2022-08-22T15:38:53.793Z,1.73
2022-08-22T15:41:34.510Z,2.17
2022-08-22T15:44:07.272Z,2.17
2022-08-22T15:46:42.235Z,1.73
2022-08-22T15:49:25.275Z,1.85
2022-08-22T15:51:54.145Z,1.90
2022-08-22T15:54:28.244Z,1.50
2022-08-22T15:57:10.401Z,1.77
2022-08-22T15:59:54.451Z,2.00
2022-08-22T16:02:38.786Z,2.15
2022-08-22T16:05:11.610Z,2.05
2022-08-22T16:07:45.722Z,1.80
2022-08-22T16:10:24.871Z,2.08
2022-08-22T16:13:13.519Z,1.70
2022-08-22T16:15:52.853Z,1.95
2022-08-22T16:18:34.527Z,2.08
2022-08-22T16:21:22.074Z,2.15
2022-08-22T16:23:53.616Z,1.95
2022-08-22T16:26:29.321Z,1.88
2022-08-22T16:29:17.365Z,2.10
2022-08-22T16:31:44.826Z,2.35
2022-08-22T16:34:17.734Z,2.05
2022-08-22T16:37:03.217Z,2.10
2022-08-22T16:39:43.457Z,2.00
2022-08-22T16:42:15.933Z,2.40
2022-08-22T16:45:01.150Z,2.20
2022-08-22T16:47:56.583Z,2.10
2022-08-22T16:50:34.315Z,1.90
2022-08-22T16:53:06.172Z,2.30
2022-08-22T16:55:40.863Z,1.90
2022-08-22T16:58:22.011Z,1.95
2022-08-22T17:03:53.266Z,2.03
2022-08-22T17:06:43.528Z,1.73
2022-08-22T17:09:41.067Z,2.03
2022-08-22T17:12:08.227Z,2.20
2022-08-22T17:14:54.618Z,1.95
2022-08-22T17:17:47.814Z,2.50
2022-08-22T17:20:20.566Z,2.10
2022-08-22T17:23:02.466Z,2.47
2022-08-22T17:26:06.157Z,2.47
2022-08-22T17:28:34.305Z,2.00
2022-08-22T17:31:07.166Z,2.22
2022-08-22T17:34:00.223Z,2.30
2022-08-22T17:36:49.798Z,1.90
2022-08-22T17:39:49.976Z,2.10
2022-08-22T17:42:45.423Z,2.15
2022-08-22T17:45:35.283Z,2.28
2022-08-22T17:48:12.072Z,2.30
2022-08-22T17:50:46.650Z,2.25
2022-08-22T17:53:46.628Z,2.42
2022-08-22T17:56:22.259Z,2.38
2022-08-22T17:59:05.859Z,2.35
2022-08-22T18:02:01.132Z,1.98
2022-08-22T18:04:46.921Z,2.00
2022-08-22T18:07:14.197Z,2.05
2022-08-22T18:10:14.350Z,2.22
2022-08-22T18:12:54.740Z,2.38
2022-08-22T18:15:55.993Z,2.10
2022-08-22T18:18:32.325Z,2.58
2022-08-22T18:21:02.446Z,2.20
2022-08-22T18:23:54.704Z,2.40
2022-08-22T18:26:30.833Z,2.50
2022-08-22T18:29:20.812Z,2.80
2022-08-22T18:32:11.137Z,2.10
2022-08-22T18:35:03.685Z,2.20
2022-08-22T18:37:35.327Z,2.40
2022-08-22T18:40:13.632Z,2.78
2022-08-22T18:43:03.727Z,2.50
2022-08-22T18:45:45.666Z,2.10
2022-08-22T18:48:34.190Z,2.60
2022-08-22T18:51:24.756Z,2.25
2022-08-22T18:54:06.922Z,2.65
2022-08-22T18:57:16.948Z,2.25
2022-08-22T19:00:10.088Z,2.00
2022-08-22T19:02:58.579Z,2.70
2022-08-22T19:05:33.920Z,2.45
2022-08-22T19:08:13.498Z,2.60
2022-08-22T19:11:02.992Z,2.72
2022-08-22T19:13:47.424Z,2.92
2022-08-22T19:17:04.171Z,2.40
2022-08-22T19:20:06.962Z,2.33
2022-08-22T19:22:35.876Z,2.45
2022-08-22T19:25:11.759Z,2.08
2022-08-22T19:28:08.584Z,2.08
2022-08-22T19:30:48.655Z,2.55
2022-08-22T19:33:34.367Z,2.25
2022-08-22T19:36:29.269Z,2.80
2022-08-22T19:39:01.167Z,2.90
2022-08-22T19:41:43.448Z,2.80
2022-08-22T19:44:19.289Z,2.97
2022-08-22T19:47:23.924Z,2.92
2022-08-22T19:49:50.582Z,2.83
2022-08-22T19:52:26.594Z,2.38
2022-08-22T19:55:11.302Z,2.63
2022-08-22T19:57:51.362Z,2.47
2022-08-22T20:00:40.533Z,2.80
2022-08-22T20:03:43.348Z,1.95
2022-08-22T20:06:43.648Z,2.20
2022-08-22T20:09:29.869Z,2.40
2022-08-22T20:12:25.901Z,2.35
2022-08-22T20:14:52.746Z,2.33
2022-08-22T20:17:25.402Z,2.50
2022-08-22T20:22:59.273Z,2.60
2022-08-22T20:25:42.577Z,2.63
2022-08-22T20:28:23.405Z,3.80
2022-08-22T20:31:00.205Z,2.70
2022-08-22T20:33:32.389Z,3.03
2022-08-22T20:36:03.264Z,3.47
2022-08-22T20:38:55.596Z,2.72
2022-08-22T20:41:45.766Z,3.00
2022-08-22T20:44:25.148Z,2.80
2022-08-22T20:47:07.191Z,2.53
2022-08-22T20:49:46.025Z,3.30
2022-08-22T20:52:29.544Z,3.13
2022-08-22T20:55:03.723Z,2.88
2022-08-22T20:57:31.167Z,2.80
2022-08-22T21:00:07.090Z,3.25
2022-08-22T21:02:39.205Z,2.80
2022-08-22T21:05:21.417Z,2.67
2022-08-22T21:08:05.342Z,2.92
2022-08-22T21:10:53.486Z,3.28
2022-08-22T21:13:23.407Z,2.47
2022-08-22T21:15:54.472Z,2.75
2022-08-22T21:18:42.503Z,2.25
2022-08-22T21:23:51.228Z,2.70
2022-08-22T21:26:33.359Z,2.45
2022-08-22T21:29:05.188Z,3.22
2022-08-22T21:31:40.876Z,1.98
2022-08-22T21:34:13.694Z,2.95
2022-08-22T21:36:41.007Z,2.10
2022-08-22T21:39:23.782Z,2.20
2022-08-22T21:42:01.294Z,4.15
2022-08-22T21:44:30.718Z,2.97
2022-08-22T21:47:16.254Z,2.58
2022-08-22T21:50:23.163Z,2.97
2022-08-22T21:52:55.699Z,2.53
2022-08-22T21:55:36.686Z,2.75
2022-08-22T21:58:22.026Z,2.65
2022-08-22T22:01:24.939Z,2.88
2022-08-22T22:03:54.458Z,2.30
2022-08-22T22:06:21.226Z,3.05
2022-08-22T22:08:48.869Z,2.80
2022-08-22T22:11:16.984Z,2.38
2022-08-22T22:13:44.165Z,2.53
2022-08-22T22:16:14.357Z,2.90
2022-08-22T22:18:41.372Z,2.65
2022-08-22T22:21:08.796Z,2.72
2022-08-22T22:23:35.700Z,2.85
2022-08-22T22:26:04.870Z,2.70
2022-08-22T22:28:33.942Z,2.63
2022-08-22T22:31:01.049Z,2.85
2022-08-22T22:33:30.815Z,2.60
2022-08-22T22:36:03.063Z,2.55
2022-08-22T22:38:29.827Z,2.53
2022-08-22T22:40:56.716Z,2.90
2022-08-22T22:43:23.446Z,2.65
2022-08-22T22:45:50.449Z,3.25
2022-08-22T22:48:24.601Z,3.10
2022-08-22T22:50:52.959Z,3.05
2022-08-22T22:53:28.629Z,2.70
2022-08-22T22:56:09.124Z,2.75
2022-08-22T22:58:36.522Z,3.15
2022-08-22T23:01:12.970Z,2.92
2022-08-22T23:03:39.941Z,2.38
2022-08-22T23:06:19.156Z,2.88
2022-08-22T23:08:46.545Z,2.92
2022-08-22T23:11:15.468Z,2.75
2022-08-22T23:13:42.913Z,2.97
2022-08-22T23:16:13.353Z,2.97
2022-08-22T23:18:41.049Z,2.75
2022-08-22T23:21:33.942Z,2.85
2022-08-22T23:24:00.835Z,2.97
2022-08-22T23:26:28.338Z,2.90
2022-08-22T23:28:56.912Z,2.60
2022-08-22T23:31:28.857Z,3.08
2022-08-22T23:33:56.804Z,3.05
2022-08-22T23:36:24.116Z,3.20
2022-08-22T23:38:51.970Z,3.30
2022-08-22T23:41:21.485Z,2.92
2022-08-22T23:43:52.221Z,3.10
2022-08-22T23:46:21.942Z,3.15
2022-08-22T23:48:49.272Z,3.08
2022-08-22T23:51:18.742Z,3.03
2022-08-22T23:53:50.277Z,2.80
2022-08-22T23:56:29.665Z,3.15
2022-08-22T23:58:58.019Z,3.60
